sensor_id;sensor_type;location;lat;lon;timestamp;P1;durP1;ratioP1;P2;durP2;ratioP2
68509;SDS011;55512;50.102;19.958;2024-01-07T00:02:30;13.20;;;5.90;;
68509;SDS011;55512;50.102;19.958;2024-01-07T00:04:59;13.20;;;6.00;;
68509;SDS011;55512;50.102;19.958;2024-01-07T00:07:24;14.00;;;6.40;;
68509;SDS011;55512;50.102;19.958;2024-01-07T00:09:53;15.40;;;6.70;;
68509;SDS011;55512;50.102;19.958;2024-01-07T00:12:19;11.90;;;5.60;;
68509;SDS011;55512;50.102;19.958;2024-01-07T00:14:47;14.90;;;6.10;;
68509;SDS011;55512;50.102;19.958;2024-01-07T00:17:16;14.50;;;6.20;;
68509;SDS011;55512;50.102;19.958;2024-01-07T00:19:45;15.00;;;6.50;;
68509;SDS011;55512;50.102;19.958;2024-01-07T00:22:11;13.70;;;7.00;;
68509;SDS011;55512;50.102;19.958;2024-01-07T00:24:39;14.70;;;6.70;;
68509;SDS011;55512;50.102;19.958;2024-01-07T00:27:07;13.90;;;5.20;;
68509;SDS011;55512;50.102;19.958;2024-01-07T00:29:34;12.70;;;5.50;;
68509;SDS011;55512;50.102;19.958;2024-01-07T00:32:01;14.20;;;5.60;;
68509;SDS011;55512;50.102;19.958;2024-01-07T00:34:30;12.40;;;6.50;;
68509;SDS011;55512;50.102;19.958;2024-01-07T00:36:56;11.80;;;5.80;;
68509;SDS011;55512;50.102;19.958;2024-01-07T00:39:22;7.40;;;3.00;;
68509;SDS011;55512;50.102;19.958;2024-01-07T00:41:48;14.40;;;6.30;;
68509;SDS011;55512;50.102;19.958;2024-01-07T00:44:14;16.80;;;6.70;;
68509;SDS011;55512;50.102;19.958;2024-01-07T00:46:40;13.80;;;6.40;;
68509;SDS011;55512;50.102;19.958;2024-01-07T00:49:06;14.80;;;6.70;;
68509;SDS011;55512;50.102;19.958;2024-01-07T00:51:31;16.10;;;6.40;;
68509;SDS011;55512;50.102;19.958;2024-01-07T00:53:57;13.10;;;6.10;;
68509;SDS011;55512;50.102;19.958;2024-01-07T00:56:35;13.50;;;6.30;;
68509;SDS011;55512;50.102;19.958;2024-01-07T00:59:01;11.20;;;5.70;;
68509;SDS011;55512;50.102;19.958;2024-01-07T01:01:27;13.70;;;5.80;;
68509;SDS011;55512;50.102;19.958;2024-01-07T01:03:53;10.90;;;5.60;;
68509;SDS011;55512;50.102;19.958;2024-01-07T01:06:19;12.30;;;5.60;;
68509;SDS011;55512;50.102;19.958;2024-01-07T01:08:45;10.50;;;5.20;;
68509;SDS011;55512;50.102;19.958;2024-01-07T01:11:10;9.80;;;4.30;;
68509;SDS011;55512;50.102;19.958;2024-01-07T01:13:36;12.10;;;6.30;;
68509;SDS011;55512;50.102;19.958;2024-01-07T01:16:05;11.10;;;4.30;;
68509;SDS011;55512;50.102;19.958;2024-01-07T01:18:31;11.90;;;4.80;;
68509;SDS011;55512;50.102;19.958;2024-01-07T01:21:06;13.10;;;5.10;;
68509;SDS011;55512;50.102;19.958;2024-01-07T01:23:36;10.60;;;5.10;;
68509;SDS011;55512;50.102;19.958;2024-01-07T01:26:04;12.90;;;6.10;;
68509;SDS011;55512;50.102;19.958;2024-01-07T01:28:30;10.00;;;5.80;;
68509;SDS011;55512;50.102;19.958;2024-01-07T01:30:59;11.80;;;5.50;;
68509;SDS011;55512;50.102;19.958;2024-01-07T01:33:25;10.50;;;4.20;;
68509;SDS011;55512;50.102;19.958;2024-01-07T01:35:51;9.40;;;5.10;;
68509;SDS011;55512;50.102;19.958;2024-01-07T01:38:17;13.10;;;6.10;;
68509;SDS011;55512;50.102;19.958;2024-01-07T01:40:42;13.20;;;4.80;;
68509;SDS011;55512;50.102;19.958;2024-01-07T01:43:08;10.60;;;5.00;;
68509;SDS011;55512;50.102;19.958;2024-01-07T01:45:34;12.10;;;4.50;;
68509;SDS011;55512;50.102;19.958;2024-01-07T01:48:00;14.50;;;6.10;;
68509;SDS011;55512;50.102;19.958;2024-01-07T01:50:26;12.10;;;5.70;;
68509;SDS011;55512;50.102;19.958;2024-01-07T01:52:54;9.90;;;4.80;;
68509;SDS011;55512;50.102;19.958;2024-01-07T01:55:24;12.20;;;5.70;;
68509;SDS011;55512;50.102;19.958;2024-01-07T01:57:52;11.40;;;5.60;;
68509;SDS011;55512;50.102;19.958;2024-01-07T02:00:19;13.90;;;6.30;;
68509;SDS011;55512;50.102;19.958;2024-01-07T02:02:45;10.40;;;5.30;;
68509;SDS011;55512;50.102;19.958;2024-01-07T02:05:20;9.90;;;4.80;;
68509;SDS011;55512;50.102;19.958;2024-01-07T02:07:45;11.70;;;5.50;;
68509;SDS011;55512;50.102;19.958;2024-01-07T02:10:11;9.00;;;4.20;;
68509;SDS011;55512;50.102;19.958;2024-01-07T02:12:38;11.20;;;5.00;;
68509;SDS011;55512;50.102;19.958;2024-01-07T02:15:07;11.20;;;4.80;;
68509;SDS011;55512;50.102;19.958;2024-01-07T02:17:33;11.30;;;4.60;;
68509;SDS011;55512;50.102;19.958;2024-01-07T02:19:59;12.10;;;5.10;;
68509;SDS011;55512;50.102;19.958;2024-01-07T02:22:25;12.60;;;5.20;;
68509;SDS011;55512;50.102;19.958;2024-01-07T02:24:53;10.70;;;4.30;;
68509;SDS011;55512;50.102;19.958;2024-01-07T02:27:19;12.90;;;5.60;;
68509;SDS011;55512;50.102;19.958;2024-01-07T02:29:47;10.40;;;5.10;;
68509;SDS011;55512;50.102;19.958;2024-01-07T02:32:13;11.80;;;4.60;;
68509;SDS011;55512;50.102;19.958;2024-01-07T02:34:39;13.60;;;4.90;;
68509;SDS011;55512;50.102;19.958;2024-01-07T02:37:11;10.30;;;5.20;;
68509;SDS011;55512;50.102;19.958;2024-01-07T02:39:37;9.80;;;4.00;;
68509;SDS011;55512;50.102;19.958;2024-01-07T02:42:02;10.00;;;3.70;;
68509;SDS011;55512;50.102;19.958;2024-01-07T02:44:29;10.00;;;4.00;;
68509;SDS011;55512;50.102;19.958;2024-01-07T02:46:55;9.60;;;3.90;;
68509;SDS011;55512;50.102;19.958;2024-01-07T02:49:23;9.10;;;4.00;;
68509;SDS011;55512;50.102;19.958;2024-01-07T02:51:49;10.30;;;4.90;;
68509;SDS011;55512;50.102;19.958;2024-01-07T02:54:15;10.80;;;3.70;;
68509;SDS011;55512;50.102;19.958;2024-01-07T02:56:42;9.20;;;4.10;;
68509;SDS011;55512;50.102;19.958;2024-01-07T02:59:07;10.50;;;4.60;;
68509;SDS011;55512;50.102;19.958;2024-01-07T03:01:36;9.60;;;4.10;;
68509;SDS011;55512;50.102;19.958;2024-01-07T03:04:10;12.10;;;4.70;;
68509;SDS011;55512;50.102;19.958;2024-01-07T03:06:37;9.60;;;4.30;;
68509;SDS011;55512;50.102;19.958;2024-01-07T03:09:06;9.80;;;4.10;;
68509;SDS011;55512;50.102;19.958;2024-01-07T03:11:32;10.10;;;4.70;;
68509;SDS011;55512;50.102;19.958;2024-01-07T03:14:01;10.80;;;4.20;;
68509;SDS011;55512;50.102;19.958;2024-01-07T03:16:49;10.60;;;4.80;;
68509;SDS011;55512;50.102;19.958;2024-01-07T03:19:21;12.00;;;5.10;;
68509;SDS011;55512;50.102;19.958;2024-01-07T03:21:48;9.70;;;4.30;;
68509;SDS011;55512;50.102;19.958;2024-01-07T03:24:26;10.20;;;4.70;;
68509;SDS011;55512;50.102;19.958;2024-01-07T03:27:15;7.90;;;3.10;;
68509;SDS011;55512;50.102;19.958;2024-01-07T03:29:44;8.50;;;3.40;;
68509;SDS011;55512;50.102;19.958;2024-01-07T03:32:12;7.60;;;3.10;;
68509;SDS011;55512;50.102;19.958;2024-01-07T03:34:39;10.40;;;3.80;;
68509;SDS011;55512;50.102;19.958;2024-01-07T03:37:06;8.60;;;3.80;;
68509;SDS011;55512;50.102;19.958;2024-01-07T03:39:34;7.40;;;3.40;;
68509;SDS011;55512;50.102;19.958;2024-01-07T03:42:05;9.80;;;3.50;;
68509;SDS011;55512;50.102;19.958;2024-01-07T03:44:39;9.20;;;3.20;;
68509;SDS011;55512;50.102;19.958;2024-01-07T03:47:06;9.80;;;4.30;;
68509;SDS011;55512;50.102;19.958;2024-01-07T03:49:32;8.60;;;3.20;;
68509;SDS011;55512;50.102;19.958;2024-01-07T03:51:58;10.80;;;3.60;;
68509;SDS011;55512;50.102;19.958;2024-01-07T03:54:24;8.40;;;3.60;;
68509;SDS011;55512;50.102;19.958;2024-01-07T03:56:57;8.90;;;3.60;;
68509;SDS011;55512;50.102;19.958;2024-01-07T03:59:43;10.00;;;3.70;;
68509;SDS011;55512;50.102;19.958;2024-01-07T04:02:18;10.40;;;4.10;;
68509;SDS011;55512;50.102;19.958;2024-01-07T04:04:44;8.20;;;4.10;;
68509;SDS011;55512;50.102;19.958;2024-01-07T04:07:09;10.00;;;3.60;;
68509;SDS011;55512;50.102;19.958;2024-01-07T04:09:42;10.70;;;4.00;;
68509;SDS011;55512;50.102;19.958;2024-01-07T04:12:23;7.90;;;3.60;;
68509;SDS011;55512;50.102;19.958;2024-01-07T04:14:58;9.00;;;3.30;;
68509;SDS011;55512;50.102;19.958;2024-01-07T04:17:29;8.80;;;3.80;;
68509;SDS011;55512;50.102;19.958;2024-01-07T04:20:15;7.80;;;3.50;;
68509;SDS011;55512;50.102;19.958;2024-01-07T04:23:04;9.70;;;4.00;;
68509;SDS011;55512;50.102;19.958;2024-01-07T04:25:31;9.60;;;3.40;;
68509;SDS011;55512;50.102;19.958;2024-01-07T04:27:56;10.10;;;4.30;;
68509;SDS011;55512;50.102;19.958;2024-01-07T04:30:22;10.50;;;3.90;;
68509;SDS011;55512;50.102;19.958;2024-01-07T04:32:48;12.30;;;4.20;;
68509;SDS011;55512;50.102;19.958;2024-01-07T04:35:14;9.40;;;4.10;;
68509;SDS011;55512;50.102;19.958;2024-01-07T04:37:40;12.00;;;4.40;;
68509;SDS011;55512;50.102;19.958;2024-01-07T04:40:06;9.10;;;4.00;;
68509;SDS011;55512;50.102;19.958;2024-01-07T04:42:32;10.70;;;4.80;;
68509;SDS011;55512;50.102;19.958;2024-01-07T04:45:01;12.60;;;4.80;;
68509;SDS011;55512;50.102;19.958;2024-01-07T04:47:31;10.30;;;3.90;;
68509;SDS011;55512;50.102;19.958;2024-01-07T04:50:09;10.30;;;4.60;;
68509;SDS011;55512;50.102;19.958;2024-01-07T04:52:34;9.40;;;4.00;;
68509;SDS011;55512;50.102;19.958;2024-01-07T04:55:14;8.40;;;3.60;;
68509;SDS011;55512;50.102;19.958;2024-01-07T04:57:43;11.80;;;3.70;;
68509;SDS011;55512;50.102;19.958;2024-01-07T05:00:12;8.80;;;3.90;;
68509;SDS011;55512;50.102;19.958;2024-01-07T05:02:47;11.30;;;4.20;;
68509;SDS011;55512;50.102;19.958;2024-01-07T05:05:19;9.40;;;3.70;;
68509;SDS011;55512;50.102;19.958;2024-01-07T05:08:19;8.10;;;3.50;;
68509;SDS011;55512;50.102;19.958;2024-01-07T05:11:26;9.90;;;4.70;;
68509;SDS011;55512;50.102;19.958;2024-01-07T05:17:50;11.20;;;4.20;;
68509;SDS011;55512;50.102;19.958;2024-01-07T05:20:39;9.70;;;4.30;;
68509;SDS011;55512;50.102;19.958;2024-01-07T05:23:17;10.00;;;3.60;;
68509;SDS011;55512;50.102;19.958;2024-01-07T05:25:46;10.70;;;4.80;;
68509;SDS011;55512;50.102;19.958;2024-01-07T05:28:13;9.20;;;4.60;;
68509;SDS011;55512;50.102;19.958;2024-01-07T05:30:39;9.40;;;4.60;;
68509;SDS011;55512;50.102;19.958;2024-01-07T05:33:06;10.60;;;4.70;;
68509;SDS011;55512;50.102;19.958;2024-01-07T05:35:32;11.50;;;4.90;;
68509;SDS011;55512;50.102;19.958;2024-01-07T05:37:58;11.70;;;4.80;;
68509;SDS011;55512;50.102;19.958;2024-01-07T05:40:26;10.30;;;4.60;;
68509;SDS011;55512;50.102;19.958;2024-01-07T05:42:52;9.30;;;4.50;;
68509;SDS011;55512;50.102;19.958;2024-01-07T05:45:18;11.60;;;4.00;;
68509;SDS011;55512;50.102;19.958;2024-01-07T05:47:47;10.90;;;5.50;;
68509;SDS011;55512;50.102;19.958;2024-01-07T05:50:13;11.00;;;4.20;;
68509;SDS011;55512;50.102;19.958;2024-01-07T05:52:45;10.60;;;5.10;;
68509;SDS011;55512;50.102;19.958;2024-01-07T05:55:10;9.80;;;4.30;;
68509;SDS011;55512;50.102;19.958;2024-01-07T05:57:39;9.40;;;4.40;;
68509;SDS011;55512;50.102;19.958;2024-01-07T06:00:05;9.80;;;4.10;;
68509;SDS011;55512;50.102;19.958;2024-01-07T06:02:37;11.50;;;5.00;;
68509;SDS011;55512;50.102;19.958;2024-01-07T06:05:10;12.40;;;5.30;;
68509;SDS011;55512;50.102;19.958;2024-01-07T06:07:41;11.30;;;5.10;;
68509;SDS011;55512;50.102;19.958;2024-01-07T06:10:10;10.40;;;4.30;;
68509;SDS011;55512;50.102;19.958;2024-01-07T06:12:36;11.90;;;5.10;;
68509;SDS011;55512;50.102;19.958;2024-01-07T06:15:01;10.80;;;4.40;;
68509;SDS011;55512;50.102;19.958;2024-01-07T06:17:27;9.30;;;4.40;;
68509;SDS011;55512;50.102;19.958;2024-01-07T06:20:13;12.40;;;5.10;;
68509;SDS011;55512;50.102;19.958;2024-01-07T06:22:41;13.00;;;5.00;;
68509;SDS011;55512;50.102;19.958;2024-01-07T06:25:10;11.70;;;5.10;;
68509;SDS011;55512;50.102;19.958;2024-01-07T06:27:39;11.70;;;5.30;;
68509;SDS011;55512;50.102;19.958;2024-01-07T06:30:05;11.50;;;5.10;;
68509;SDS011;55512;50.102;19.958;2024-01-07T06:32:52;10.20;;;4.70;;
68509;SDS011;55512;50.102;19.958;2024-01-07T06:35:18;12.40;;;5.30;;
68509;SDS011;55512;50.102;19.958;2024-01-07T06:37:46;12.80;;;6.10;;
68509;SDS011;55512;50.102;19.958;2024-01-07T06:40:12;10.90;;;4.80;;
68509;SDS011;55512;50.102;19.958;2024-01-07T06:42:40;10.10;;;4.50;;
68509;SDS011;55512;50.102;19.958;2024-01-07T06:45:13;12.30;;;5.40;;
68509;SDS011;55512;50.102;19.958;2024-01-07T06:47:41;10.50;;;4.50;;
68509;SDS011;55512;50.102;19.958;2024-01-07T06:50:20;13.00;;;6.10;;
68509;SDS011;55512;50.102;19.958;2024-01-07T06:52:46;9.50;;;4.20;;
68509;SDS011;55512;50.102;19.958;2024-01-07T06:55:12;11.20;;;5.40;;
68509;SDS011;55512;50.102;19.958;2024-01-07T06:57:40;11.90;;;5.10;;
68509;SDS011;55512;50.102;19.958;2024-01-07T07:00:27;9.80;;;5.00;;
68509;SDS011;55512;50.102;19.958;2024-01-07T07:02:52;9.90;;;4.10;;
68509;SDS011;55512;50.102;19.958;2024-01-07T07:05:21;14.30;;;6.20;;
68509;SDS011;55512;50.102;19.958;2024-01-07T07:07:47;11.70;;;5.00;;
68509;SDS011;55512;50.102;19.958;2024-01-07T07:10:26;10.80;;;5.00;;
68509;SDS011;55512;50.102;19.958;2024-01-07T07:13:05;13.00;;;5.80;;
68509;SDS011;55512;50.102;19.958;2024-01-07T07:15:31;13.60;;;5.60;;
68509;SDS011;55512;50.102;19.958;2024-01-07T07:18:00;8.70;;;4.10;;
68509;SDS011;55512;50.102;19.958;2024-01-07T07:20:26;12.00;;;5.90;;
68509;SDS011;55512;50.102;19.958;2024-01-07T07:22:54;12.10;;;5.10;;
68509;SDS011;55512;50.102;19.958;2024-01-07T07:25:20;11.80;;;5.00;;
68509;SDS011;55512;50.102;19.958;2024-01-07T07:27:49;10.80;;;4.80;;
68509;SDS011;55512;50.102;19.958;2024-01-07T07:32:59;11.90;;;5.30;;
68509;SDS011;55512;50.102;19.958;2024-01-07T07:35:25;13.40;;;6.30;;
68509;SDS011;55512;50.102;19.958;2024-01-07T07:37:52;14.30;;;5.90;;
68509;SDS011;55512;50.102;19.958;2024-01-07T07:40:20;11.40;;;5.00;;
68509;SDS011;55512;50.102;19.958;2024-01-07T07:42:46;12.60;;;5.20;;
68509;SDS011;55512;50.102;19.958;2024-01-07T07:45:12;11.40;;;4.60;;
68509;SDS011;55512;50.102;19.958;2024-01-07T07:47:38;11.40;;;5.20;;
68509;SDS011;55512;50.102;19.958;2024-01-07T07:50:07;11.20;;;4.80;;
68509;SDS011;55512;50.102;19.958;2024-01-07T07:52:33;10.70;;;5.50;;
68509;SDS011;55512;50.102;19.958;2024-01-07T07:55:10;9.90;;;4.70;;
68509;SDS011;55512;50.102;19.958;2024-01-07T07:57:37;12.40;;;6.10;;
68509;SDS011;55512;50.102;19.958;2024-01-07T08:00:06;10.70;;;4.80;;
68509;SDS011;55512;50.102;19.958;2024-01-07T08:02:36;11.20;;;4.50;;
68509;SDS011;55512;50.102;19.958;2024-01-07T08:05:01;11.20;;;4.50;;
68509;SDS011;55512;50.102;19.958;2024-01-07T08:07:27;8.90;;;4.70;;
68509;SDS011;55512;50.102;19.958;2024-01-07T08:09:53;10.70;;;5.10;;
68509;SDS011;55512;50.102;19.958;2024-01-07T08:12:19;10.40;;;4.60;;
68509;SDS011;55512;50.102;19.958;2024-01-07T08:14:53;10.60;;;4.40;;
68509;SDS011;55512;50.102;19.958;2024-01-07T08:17:30;11.20;;;4.70;;
68509;SDS011;55512;50.102;19.958;2024-01-07T08:19:56;9.80;;;3.90;;
68509;SDS011;55512;50.102;19.958;2024-01-07T08:22:25;9.00;;;4.60;;
68509;SDS011;55512;50.102;19.958;2024-01-07T08:24:54;10.80;;;4.70;;
68509;SDS011;55512;50.102;19.958;2024-01-07T08:27:20;10.60;;;4.50;;
68509;SDS011;55512;50.102;19.958;2024-01-07T08:29:57;11.60;;;4.70;;
68509;SDS011;55512;50.102;19.958;2024-01-07T08:32:23;12.30;;;5.20;;
68509;SDS011;55512;50.102;19.958;2024-01-07T08:34:49;10.10;;;4.80;;
68509;SDS011;55512;50.102;19.958;2024-01-07T08:37:15;12.50;;;5.70;;
68509;SDS011;55512;50.102;19.958;2024-01-07T08:39:41;12.70;;;5.50;;
68509;SDS011;55512;50.102;19.958;2024-01-07T08:42:17;13.30;;;6.40;;
68509;SDS011;55512;50.102;19.958;2024-01-07T08:44:42;11.30;;;4.90;;
68509;SDS011;55512;50.102;19.958;2024-01-07T08:47:08;13.30;;;5.10;;
68509;SDS011;55512;50.102;19.958;2024-01-07T08:49:34;12.90;;;6.20;;
68509;SDS011;55512;50.102;19.958;2024-01-07T08:52:03;11.30;;;5.60;;
68509;SDS011;55512;50.102;19.958;2024-01-07T08:54:30;11.30;;;4.90;;
68509;SDS011;55512;50.102;19.958;2024-01-07T08:56:58;8.20;;;4.00;;
68509;SDS011;55512;50.102;19.958;2024-01-07T08:59:24;12.50;;;5.50;;
68509;SDS011;55512;50.102;19.958;2024-01-07T09:01:50;11.40;;;5.60;;
68509;SDS011;55512;50.102;19.958;2024-01-07T09:04:16;11.60;;;5.50;;
68509;SDS011;55512;50.102;19.958;2024-01-07T09:06:43;12.60;;;5.80;;
68509;SDS011;55512;50.102;19.958;2024-01-07T09:09:09;12.40;;;5.70;;
68509;SDS011;55512;50.102;19.958;2024-01-07T09:11:36;11.90;;;4.80;;
68509;SDS011;55512;50.102;19.958;2024-01-07T09:14:05;11.70;;;5.20;;
68509;SDS011;55512;50.102;19.958;2024-01-07T09:16:33;10.80;;;5.10;;
68509;SDS011;55512;50.102;19.958;2024-01-07T09:19:06;11.00;;;5.50;;
68509;SDS011;55512;50.102;19.958;2024-01-07T09:21:35;11.60;;;5.80;;
68509;SDS011;55512;50.102;19.958;2024-01-07T09:24:03;11.70;;;4.50;;
68509;SDS011;55512;50.102;19.958;2024-01-07T09:26:29;11.40;;;5.80;;
68509;SDS011;55512;50.102;19.958;2024-01-07T09:28:59;10.80;;;5.20;;
68509;SDS011;55512;50.102;19.958;2024-01-07T09:31:25;11.60;;;5.60;;
68509;SDS011;55512;50.102;19.958;2024-01-07T09:33:54;11.10;;;5.60;;
68509;SDS011;55512;50.102;19.958;2024-01-07T09:36:20;12.10;;;6.40;;
68509;SDS011;55512;50.102;19.958;2024-01-07T09:38:54;11.00;;;5.00;;
68509;SDS011;55512;50.102;19.958;2024-01-07T09:41:44;13.90;;;6.50;;
68509;SDS011;55512;50.102;19.958;2024-01-07T09:44:09;10.40;;;5.20;;
68509;SDS011;55512;50.102;19.958;2024-01-07T09:46:37;13.30;;;5.40;;
68509;SDS011;55512;50.102;19.958;2024-01-07T09:49:04;11.40;;;5.20;;
68509;SDS011;55512;50.102;19.958;2024-01-07T09:51:34;11.80;;;5.40;;
68509;SDS011;55512;50.102;19.958;2024-01-07T09:54:05;12.80;;;5.70;;
68509;SDS011;55512;50.102;19.958;2024-01-07T10:00:06;13.60;;;6.40;;
68509;SDS011;55512;50.102;19.958;2024-01-07T10:02:49;11.20;;;5.20;;
68509;SDS011;55512;50.102;19.958;2024-01-07T10:05:35;13.40;;;6.60;;
68509;SDS011;55512;50.102;19.958;2024-01-07T10:08:07;12.50;;;6.30;;
68509;SDS011;55512;50.102;19.958;2024-01-07T10:11:14;12.00;;;5.70;;
68509;SDS011;55512;50.102;19.958;2024-01-07T10:13:49;12.10;;;5.70;;
68509;SDS011;55512;50.102;19.958;2024-01-07T10:16:18;11.90;;;5.90;;
68509;SDS011;55512;50.102;19.958;2024-01-07T10:18:52;11.70;;;5.80;;
68509;SDS011;55512;50.102;19.958;2024-01-07T10:21:18;12.30;;;5.30;;
68509;SDS011;55512;50.102;19.958;2024-01-07T10:23:44;13.30;;;6.00;;
68509;SDS011;55512;50.102;19.958;2024-01-07T10:26:10;13.70;;;5.60;;
68509;SDS011;55512;50.102;19.958;2024-01-07T10:28:55;13.70;;;5.90;;
68509;SDS011;55512;50.102;19.958;2024-01-07T10:31:38;12.60;;;6.40;;
68509;SDS011;55512;50.102;19.958;2024-01-07T10:34:30;13.60;;;6.20;;
68509;SDS011;55512;50.102;19.958;2024-01-07T10:36:58;14.10;;;5.30;;
68509;SDS011;55512;50.102;19.958;2024-01-07T10:39:29;13.30;;;6.50;;
68509;SDS011;55512;50.102;19.958;2024-01-07T10:45:54;15.00;;;6.40;;
68509;SDS011;55512;50.102;19.958;2024-01-07T10:48:27;12.00;;;6.70;;
68509;SDS011;55512;50.102;19.958;2024-01-07T10:50:59;10.90;;;5.60;;
68509;SDS011;55512;50.102;19.958;2024-01-07T10:53:59;11.00;;;6.10;;
68509;SDS011;55512;50.102;19.958;2024-01-07T10:56:45;12.70;;;6.00;;
68509;SDS011;55512;50.102;19.958;2024-01-07T10:59:19;10.80;;;5.40;;
68509;SDS011;55512;50.102;19.958;2024-01-07T11:01:45;10.60;;;5.80;;
68509;SDS011;55512;50.102;19.958;2024-01-07T11:04:38;14.70;;;6.00;;
68509;SDS011;55512;50.102;19.958;2024-01-07T11:07:39;14.50;;;6.20;;
68509;SDS011;55512;50.102;19.958;2024-01-07T11:10:24;15.00;;;6.10;;
68509;SDS011;55512;50.102;19.958;2024-01-07T11:12:56;11.00;;;5.90;;
68509;SDS011;55512;50.102;19.958;2024-01-07T11:16:04;10.30;;;6.10;;
68509;SDS011;55512;50.102;19.958;2024-01-07T11:18:40;13.90;;;6.80;;
68509;SDS011;55512;50.102;19.958;2024-01-07T11:21:20;12.50;;;5.30;;
68509;SDS011;55512;50.102;19.958;2024-01-07T11:24:05;12.00;;;6.80;;
68509;SDS011;55512;50.102;19.958;2024-01-07T11:26:34;12.40;;;7.00;;
68509;SDS011;55512;50.102;19.958;2024-01-07T11:29:02;13.40;;;7.20;;
68509;SDS011;55512;50.102;19.958;2024-01-07T11:31:47;11.20;;;5.60;;
68509;SDS011;55512;50.102;19.958;2024-01-07T11:34:42;12.10;;;7.00;;
68509;SDS011;55512;50.102;19.958;2024-01-07T11:37:28;15.20;;;7.10;;
68509;SDS011;55512;50.102;19.958;2024-01-07T11:40:10;13.90;;;5.80;;
68509;SDS011;55512;50.102;19.958;2024-01-07T11:43:06;13.40;;;6.60;;
68509;SDS011;55512;50.102;19.958;2024-01-07T11:45:56;13.20;;;7.30;;
68509;SDS011;55512;50.102;19.958;2024-01-07T11:48:35;12.40;;;6.20;;
68509;SDS011;55512;50.102;19.958;2024-01-07T11:51:01;12.80;;;6.60;;
68509;SDS011;55512;50.102;19.958;2024-01-07T11:53:27;13.60;;;7.10;;
68509;SDS011;55512;50.102;19.958;2024-01-07T11:55:53;16.40;;;7.50;;
68509;SDS011;55512;50.102;19.958;2024-01-07T11:58:19;15.00;;;6.00;;
68509;SDS011;55512;50.102;19.958;2024-01-07T12:00:48;14.50;;;7.00;;
68509;SDS011;55512;50.102;19.958;2024-01-07T12:03:15;13.20;;;6.60;;
68509;SDS011;55512;50.102;19.958;2024-01-07T12:05:41;13.90;;;6.70;;
68509;SDS011;55512;50.102;19.958;2024-01-07T12:08:10;15.80;;;6.50;;
68509;SDS011;55512;50.102;19.958;2024-01-07T12:10:37;12.50;;;7.30;;
68509;SDS011;55512;50.102;19.958;2024-01-07T12:13:03;14.50;;;7.60;;
68509;SDS011;55512;50.102;19.958;2024-01-07T12:15:29;12.80;;;6.30;;
68509;SDS011;55512;50.102;19.958;2024-01-07T12:17:57;16.30;;;7.00;;
68509;SDS011;55512;50.102;19.958;2024-01-07T12:20:24;11.90;;;4.90;;
68509;SDS011;55512;50.102;19.958;2024-01-07T12:22:51;16.70;;;7.30;;
68509;SDS011;55512;50.102;19.958;2024-01-07T12:25:23;14.60;;;8.10;;
68509;SDS011;55512;50.102;19.958;2024-01-07T12:27:51;13.70;;;8.20;;
68509;SDS011;55512;50.102;19.958;2024-01-07T12:30:20;17.30;;;7.20;;
68509;SDS011;55512;50.102;19.958;2024-01-07T12:32:46;15.40;;;7.10;;
68509;SDS011;55512;50.102;19.958;2024-01-07T12:35:16;13.60;;;7.00;;
68509;SDS011;55512;50.102;19.958;2024-01-07T12:37:42;16.80;;;7.30;;
68509;SDS011;55512;50.102;19.958;2024-01-07T12:40:09;15.10;;;7.30;;
68509;SDS011;55512;50.102;19.958;2024-01-07T12:42:40;16.50;;;7.40;;
68509;SDS011;55512;50.102;19.958;2024-01-07T12:45:11;13.40;;;6.30;;
68509;SDS011;55512;50.102;19.958;2024-01-07T12:47:41;16.00;;;8.20;;
68509;SDS011;55512;50.102;19.958;2024-01-07T12:50:08;16.10;;;8.10;;
68509;SDS011;55512;50.102;19.958;2024-01-07T12:52:38;18.40;;;8.40;;
68509;SDS011;55512;50.102;19.958;2024-01-07T12:55:07;14.50;;;7.90;;
68509;SDS011;55512;50.102;19.958;2024-01-07T12:57:34;17.00;;;8.60;;
68509;SDS011;55512;50.102;19.958;2024-01-07T13:00:00;15.50;;;8.50;;
68509;SDS011;55512;50.102;19.958;2024-01-07T13:02:30;15.70;;;8.40;;
68509;SDS011;55512;50.102;19.958;2024-01-07T13:04:59;17.70;;;8.80;;
68509;SDS011;55512;50.102;19.958;2024-01-07T13:07:34;16.60;;;9.00;;
68509;SDS011;55512;50.102;19.958;2024-01-07T13:10:00;16.70;;;8.40;;
68509;SDS011;55512;50.102;19.958;2024-01-07T13:12:26;15.90;;;8.60;;
68509;SDS011;55512;50.102;19.958;2024-01-07T13:14:52;18.00;;;9.50;;
68509;SDS011;55512;50.102;19.958;2024-01-07T13:17:18;18.40;;;9.90;;
68509;SDS011;55512;50.102;19.958;2024-01-07T13:19:47;15.70;;;9.10;;
68509;SDS011;55512;50.102;19.958;2024-01-07T13:22:27;15.60;;;8.80;;
68509;SDS011;55512;50.102;19.958;2024-01-07T13:24:56;20.40;;;10.60;;
68509;SDS011;55512;50.102;19.958;2024-01-07T13:27:25;17.60;;;10.70;;
68509;SDS011;55512;50.102;19.958;2024-01-07T13:29:51;20.20;;;10.60;;
68509;SDS011;55512;50.102;19.958;2024-01-07T13:32:23;20.70;;;10.20;;
68509;SDS011;55512;50.102;19.958;2024-01-07T13:35:09;16.20;;;8.40;;
68509;SDS011;55512;50.102;19.958;2024-01-07T13:37:41;21.20;;;9.60;;
68509;SDS011;55512;50.102;19.958;2024-01-07T13:40:10;19.00;;;10.00;;
68509;SDS011;55512;50.102;19.958;2024-01-07T13:42:49;19.10;;;9.50;;
68509;SDS011;55512;50.102;19.958;2024-01-07T13:45:17;18.60;;;9.40;;
68509;SDS011;55512;50.102;19.958;2024-01-07T13:47:46;16.90;;;9.20;;
68509;SDS011;55512;50.102;19.958;2024-01-07T13:50:20;21.00;;;10.00;;
68509;SDS011;55512;50.102;19.958;2024-01-07T13:52:49;20.10;;;9.40;;
68509;SDS011;55512;50.102;19.958;2024-01-07T13:55:46;18.20;;;10.00;;
68509;SDS011;55512;50.102;19.958;2024-01-07T13:58:12;16.00;;;8.30;;
68509;SDS011;55512;50.102;19.958;2024-01-07T14:00:40;17.40;;;9.20;;
68509;SDS011;55512;50.102;19.958;2024-01-07T14:03:07;17.90;;;9.90;;
68509;SDS011;55512;50.102;19.958;2024-01-07T14:05:32;15.70;;;8.40;;
68509;SDS011;55512;50.102;19.958;2024-01-07T14:08:01;15.30;;;8.80;;
68509;SDS011;55512;50.102;19.958;2024-01-07T14:10:27;20.30;;;10.40;;
68509;SDS011;55512;50.102;19.958;2024-01-07T14:12:56;18.40;;;9.20;;
68509;SDS011;55512;50.102;19.958;2024-01-07T14:15:22;22.00;;;10.00;;
68509;SDS011;55512;50.102;19.958;2024-01-07T14:17:47;19.40;;;10.10;;
68509;SDS011;55512;50.102;19.958;2024-01-07T14:20:14;19.20;;;9.60;;
68509;SDS011;55512;50.102;19.958;2024-01-07T14:22:40;22.60;;;10.30;;
68509;SDS011;55512;50.102;19.958;2024-01-07T14:25:06;20.60;;;10.50;;
68509;SDS011;55512;50.102;19.958;2024-01-07T14:27:32;19.50;;;10.00;;
68509;SDS011;55512;50.102;19.958;2024-01-07T14:30:04;19.20;;;9.00;;
68509;SDS011;55512;50.102;19.958;2024-01-07T14:32:30;20.30;;;9.60;;
68509;SDS011;55512;50.102;19.958;2024-01-07T14:34:58;16.10;;;8.30;;
68509;SDS011;55512;50.102;19.958;2024-01-07T14:37:24;18.80;;;8.70;;
68509;SDS011;55512;50.102;19.958;2024-01-07T14:39:51;17.20;;;9.20;;
68509;SDS011;55512;50.102;19.958;2024-01-07T14:42:40;17.90;;;8.60;;
68509;SDS011;55512;50.102;19.958;2024-01-07T14:45:06;13.10;;;6.90;;
68509;SDS011;55512;50.102;19.958;2024-01-07T14:47:32;19.20;;;9.00;;
68509;SDS011;55512;50.102;19.958;2024-01-07T14:50:01;17.40;;;8.70;;
68509;SDS011;55512;50.102;19.958;2024-01-07T14:52:28;16.10;;;7.60;;
68509;SDS011;55512;50.102;19.958;2024-01-07T14:55:05;19.60;;;9.30;;
68509;SDS011;55512;50.102;19.958;2024-01-07T14:57:31;18.90;;;9.80;;